Time;durP1;ratioP1;P1;durP2;ratioP2;P2;SDS_P1;SDS_P2;PMS_P1;PMS_P2;Temp;Humidity;BMP_temperature;BMP_pressure;BME280_temperature;BME280_humidity;BME280_pressure;Samples;Min_cycle;Max_cycle;Signal;HPM_P1;HPM_P2
2022/11/25 00:01:15;;;;;;;24.58;11.82;;;;;;;18.99;29.16;102019.00;5034139;28;20033;-52
2022/11/25 00:03:42;;;;;;;18.52;11.00;;;;;;;19.07;28.90;102015.94;5032326;28;20100;-49
2022/11/25 00:06:17;;;;;;;22.88;10.25;;;;;;;18.98;28.97;102022.75;5033601;28;20021;-50
2022/11/25 00:08:46;;;;;;;18.88;10.85;;;;;;;18.86;29.28;102032.75;5033847;28;20025;-54
2022/11/25 00:11:13;;;;;;;21.40;11.18;;;;;;;18.81;29.34;102035.34;5033728;28;20029;-52
2022/11/25 00:13:41;;;;;;;18.95;10.45;;;;;;;18.69;29.62;102038.03;5033237;28;20390;-50
2022/11/25 00:16:10;;;;;;;21.40;10.75;;;;;;;18.66;29.79;102039.28;5033580;28;20029;-52
2022/11/25 00:18:36;;;;;;;20.98;10.27;;;;;;;18.71;29.85;102052.16;5033350;28;20053;-52
2022/11/25 00:21:13;;;;;;;16.40;9.52;;;;;;;18.60;29.55;102051.06;5033541;28;20061;-51
2022/11/25 00:23:39;;;;;;;21.85;9.90;;;;;;;18.62;29.93;102051.66;5032973;28;20025;-50
2022/11/25 00:26:16;;;;;;;17.23;9.88;;;;;;;18.71;29.42;102054.88;5033362;28;20079;-48
2022/11/25 00:28:44;;;;;;;17.98;9.88;;;;;;;18.34;29.97;102063.06;5022946;28;20030;-52
2022/11/25 00:31:19;;;;;;;21.08;10.27;;;;;;;18.38;30.17;102066.16;5013708;28;20030;-51
2022/11/25 00:33:45;;;;;;;;;;;;;;;18.19;30.36;102066.16;5021465;28;20035;-52
2022/11/25 00:36:22;;;;;;;17.65;10.15;;;;;;;18.12;30.62;102076.25;5033161;28;19912;-51
2022/11/25 00:38:56;;;;;;;16.63;8.98;;;;;;;18.03;30.81;102071.38;5033040;28;20029;-50
2022/11/25 00:46:54;;;;;;;16.02;9.20;;;;;;;17.81;30.42;102068.25;5033365;28;20041;-50
2022/11/25 00:49:20;;;;;;;15.35;9.18;;;;;;;17.72;31.00;102069.59;5032577;28;20048;-52
2022/11/25 00:51:46;;;;;;;16.35;8.93;;;;;;;17.61;31.29;102079.28;5033385;28;20048;-53
2022/11/25 00:54:13;;;;;;;19.00;9.25;;;;;;;17.57;31.30;102070.75;5032535;28;20013;-50
2022/11/25 00:56:39;;;;;;;17.77;9.63;;;;;;;17.61;31.32;102080.09;5032956;28;20373;-50
2022/11/25 00:59:06;;;;;;;15.80;9.32;;;;;;;17.71;31.42;102086.88;5032740;28;20038;-52
2022/11/25 01:01:33;;;;;;;16.92;9.55;;;;;;;17.58;31.67;102085.94;5032866;28;20075;-49
2022/11/25 01:04:03;;;;;;;17.58;9.45;;;;;;;17.45;32.15;102093.38;4998418;28;20043;-52
2022/11/25 01:06:30;;;;;;;18.95;10.40;;;;;;;17.39;32.08;102097.78;5032880;28;20590;-49
2022/11/25 01:08:56;;;;;;;18.27;9.27;;;;;;;17.22;32.59;102102.91;5032474;28;20108;-49
2022/11/25 01:11:23;;;;;;;19.00;10.13;;;;;;;17.43;32.37;102098.97;5031166;28;20083;-48
2022/11/25 01:13:52;;;;;;;17.95;9.15;;;;;;;17.31;32.14;102103.47;5031882;28;20032;-50
2022/11/25 01:16:20;;;;;;;20.88;10.25;;;;;;;17.01;32.92;102095.16;5031592;28;20040;-51
2022/11/25 01:18:46;;;;;;;18.70;10.27;;;;;;;17.14;32.47;102097.75;5032292;28;20026;-49
2022/11/25 01:21:15;;;;;;;21.30;10.55;;;;;;;17.03;32.71;102096.56;5032435;28;20025;-49
2022/11/25 01:23:43;;;;;;;20.02;9.60;;;;;;;16.89;32.95;102090.44;5031965;28;20056;-50
2022/11/25 01:26:15;;;;;;;18.27;9.65;;;;;;;16.73;32.76;102084.72;5032381;28;20100;-50
2022/11/25 01:28:41;;;;;;;18.55;9.95;;;;;;;16.39;33.32;102084.00;5022448;28;20028;-52
2022/11/25 01:31:16;;;;;;;19.38;10.10;;;;;;;16.48;33.01;102090.00;5012659;28;20022;-51
2022/11/25 01:33:44;;;;;;;19.52;9.80;;;;;;;16.50;32.99;102094.16;5012190;28;20030;-51
2022/11/25 01:36:14;;;;;;;18.27;10.23;;;;;;;16.44;33.10;102083.38;5011456;28;20124;-53
2022/11/25 01:38:41;;;;;;;18.50;9.80;;;;;;;16.42;32.83;102094.38;5012615;28;20068;-51
2022/11/25 01:41:10;;;;;;;19.77;10.27;;;;;;;16.39;33.18;102092.13;5012110;28;20049;-49
2022/11/25 01:43:36;;;;;;;19.55;10.23;;;;;;;16.40;32.65;102095.66;5011827;28;20022;-50
2022/11/25 01:46:24;;;;;;;19.58;9.93;;;;;;;16.29;32.87;102097.97;5012283;28;20022;-52
2022/11/25 01:48:59;;;;;;;19.13;10.48;;;;;;;16.35;32.61;102104.38;5011874;28;20034;-53
2022/11/25 01:51:39;;;;;;;23.92;9.98;;;;;;;16.26;33.06;102100.25;5012436;28;20030;-50
2022/11/25 01:54:10;;;;;;;22.63;10.75;;;;;;;16.54;32.75;102106.16;5012157;28;20029;-51
2022/11/25 01:56:43;;;;;;;20.38;10.02;;;;;;;16.41;32.79;102108.09;5012105;28;20026;-52
2022/11/25 01:59:10;;;;;;;22.95;11.10;;;;;;;16.22;33.00;102112.56;5011790;28;20050;-51
2022/11/25 02:01:36;;;;;;;23.42;11.45;;;;;;;16.10;33.50;102109.66;5012331;28;20053;-50
2022/11/25 02:04:04;;;;;;;23.20;11.70;;;;;;;16.44;32.63;102105.81;5011585;28;20033;-51
2022/11/25 02:06:36;;;;;;;24.45;11.07;;;;;;;16.45;32.78;102112.06;5011840;28;20053;-52
2022/11/25 02:09:06;;;;;;;24.80;11.98;;;;;;;16.41;32.49;102106.22;5011922;28;20494;-51
2022/11/25 02:11:35;;;;;;;25.50;12.18;;;;;;;16.35;32.92;102107.91;5011710;28;20490;-51
2022/11/25 02:14:02;;;;;;;24.77;12.63;;;;;;;16.47;32.50;102107.25;5011623;28;20498;-51
2022/11/25 02:16:29;;;;;;;29.63;13.27;;;;;;;16.28;32.73;102112.53;5011858;28;20498;-50
2022/11/25 02:18:56;;;;;;;20.60;11.20;;;;;;;16.29;32.25;102116.88;5011971;28;20034;-48
2022/11/25 02:21:32;;;;;;;23.38;11.07;;;;;;;16.28;33.30;102117.94;5011561;28;20061;-51
2022/11/25 02:24:15;;;;;;;26.73;11.25;;;;;;;16.15;32.80;102109.84;5011751;28;20058;-49
2022/11/25 02:26:42;;;;;;;22.90;11.38;;;;;;;16.12;33.26;102110.28;5014288;28;20364;-51
2022/11/25 02:29:08;;;;;;;23.63;11.40;;;;;;;16.02;33.73;102113.41;5015431;28;20030;-50
2022/11/25 02:31:34;;;;;;;21.27;11.70;;;;;;;16.06;33.71;102106.56;5015504;28;20071;-51
2022/11/25 02:34:00;;;;;;;25.77;12.73;;;;;;;16.14;33.53;102110.06;5015298;28;20033;-49
2022/11/25 02:36:27;;;;;;;25.13;12.55;;;;;;;16.21;33.79;102109.03;5015905;28;20026;-49
2022/11/25 02:38:56;;;;;;;33.58;13.80;;;;;;;15.95;34.08;102114.47;5015622;28;20033;-49
2022/11/25 02:41:38;;;;;;;27.25;13.15;;;;;;;15.86;33.96;102119.25;5015369;28;20483;-49
2022/11/25 02:44:05;;;;;;;28.30;13.90;;;;;;;15.86;34.41;102121.13;5013905;28;20037;-51
2022/11/25 02:46:32;;;;;;;30.10;15.00;;;;;;;15.64;34.76;102131.31;5015517;28;20030;-52
2022/11/25 02:48:58;;;;;;;31.60;13.88;;;;;;;15.77;34.79;102124.06;5015301;28;20095;-52
2022/11/25 02:51:28;;;;;;;29.10;14.18;;;;;;;15.70;34.91;102122.38;5015377;28;20382;-52
2022/11/25 02:53:55;;;;;;;31.42;14.68;;;;;;;15.84;34.88;102130.28;5013870;28;20026;-51
2022/11/25 02:56:28;;;;;;;28.92;13.57;;;;;;;15.73;35.15;102130.09;5015455;28;20022;-52
2022/11/25 02:58:55;;;;;;;32.65;13.38;;;;;;;15.76;35.18;102118.84;5015320;28;20084;-51
2022/11/25 03:01:21;;;;;;;28.63;14.25;;;;;;;15.49;35.49;102118.84;5015117;28;20034;-52
2022/11/25 03:03:48;;;;;;;33.55;14.95;;;;;;;15.45;35.86;102136.50;5014950;28;20490;-51
2022/11/25 03:06:14;;;;;;;34.33;14.45;;;;;;;15.36;35.76;102134.19;5014810;28;20109;-51
2022/11/25 03:08:40;;;;;;;30.63;14.32;;;;;;;15.31;36.12;102129.41;5013859;28;20519;-52
2022/11/25 03:11:06;;;;;;;33.15;14.27;;;;;;;15.40;35.80;102133.56;5013690;28;20125;-52
2022/11/25 03:13:33;;;;;;;38.53;16.38;;;;;;;15.31;36.06;102132.09;5014647;28;20108;-51
2022/11/25 03:15:59;;;;;;;65.65;31.40;;;;;;;15.56;36.04;102130.47;5013594;28;20404;-51
2022/11/25 03:18:25;;;;;;;44.83;19.17;;;;;;;15.48;36.08;102135.22;5014645;28;20026;-50
2022/11/25 03:20:56;;;;;;;40.05;18.83;;;;;;;15.42;36.36;102134.19;5015086;28;20026;-51
2022/11/25 03:23:22;;;;;;;38.33;19.25;;;;;;;15.44;36.42;102134.81;5014151;28;20025;-52
2022/11/25 03:25:48;;;;;;;30.60;15.00;;;;;;;15.57;36.69;102142.91;5014617;28;20026;-49
2022/11/25 03:28:15;;;;;;;32.20;15.27;;;;;;;15.47;37.40;102142.50;5014297;28;20115;-50
2022/11/25 03:30:42;;;;;;;30.70;13.60;;;;;;;15.18;38.01;102148.28;5014480;28;20275;-51
2022/11/25 03:33:08;;;;;;;30.23;14.13;;;;;;;15.24;38.45;102152.84;5014234;28;20028;-49
2022/11/25 03:35:35;;;;;;;26.08;13.63;;;;;;;15.26;38.50;102148.91;5014466;28;20029;-51
2022/11/25 03:38:01;;;;;;;29.63;13.30;;;;;;;14.83;39.27;102155.66;5014405;28;20033;-52
2022/11/25 03:40:27;;;;;;;30.73;12.80;;;;;;;14.79;39.69;102157.91;5014278;28;20034;-51
2022/11/25 03:42:53;;;;;;;29.35;13.85;;;;;;;14.59;39.92;102167.78;5013701;28;20025;-49
2022/11/25 03:45:19;;;;;;;28.30;13.70;;;;;;;14.50;40.48;102167.94;5014487;28;20072;-50
2022/11/25 03:47:46;;;;;;;26.65;15.30;;;;;;;14.45;40.66;102162.28;5014004;28;20041;-51
2022/11/25 03:50:14;;;;;;;27.10;13.50;;;;;;;14.40;40.91;102161.22;5013920;28;20522;-51
2022/11/25 03:52:40;;;;;;;29.42;14.57;;;;;;;14.31;41.06;102168.63;5014122;28;20041;-51
2022/11/25 03:55:07;;;;;;;32.20;17.77;;;;;;;14.24;41.13;102173.16;5014342;28;20026;-52
2022/11/25 03:57:33;;;;;;;27.08;14.05;;;;;;;14.25;41.24;102169.41;5013929;28;20022;-48
2022/11/25 04:00:00;;;;;;;21.75;11.88;;;;;;;14.21;41.35;102176.22;5014033;28;20029;-50
2022/11/25 04:02:27;;;;;;;22.52;12.73;;;;;;;14.02;41.65;102171.56;5012374;28;20029;-50
2022/11/25 04:04:53;;;;;;;25.80;13.15;;;;;;;14.16;41.76;102179.53;5013991;28;20021;-49
2022/11/25 04:07:19;;;;;;;27.27;13.18;;;;;;;13.89;42.19;102177.69;5013953;28;20018;-52
2022/11/25 04:09:46;;;;;;;21.02;12.25;;;;;;;13.80;42.45;102181.53;5013927;28;20434;-51
2022/11/25 04:14:56;;;;;;;18.95;11.77;;;;;;;13.74;43.05;102202.81;5013985;28;20037;-48
2022/11/25 04:17:22;;;;;;;20.00;12.43;;;;;;;13.56;43.11;102204.28;5013591;28;20030;-47
2022/11/25 04:19:49;;;;;;;20.17;12.05;;;;;;;13.73;42.97;102206.53;5014054;28;20386;-48
2022/11/25 04:22:15;;;;;;;21.33;12.07;;;;;;;13.38;43.55;102221.72;5013132;28;20493;-48
2022/11/25 04:24:41;;;;;;;19.05;11.38;;;;;;;13.38;43.67;102224.41;5012278;28;20029;-48
2022/11/25 04:27:07;;;;;;;16.58;11.25;;;;;;;13.35;43.68;102229.31;5013701;28;20022;-47
2022/11/25 04:29:33;;;;;;;18.67;10.77;;;;;;;13.10;44.05;102231.47;5013394;28;20038;-48
2022/11/25 04:31:59;;;;;;;19.83;11.20;;;;;;;13.07;44.24;102240.75;5013212;28;20056;-47
2022/11/25 04:34:26;;;;;;;23.35;11.98;;;;;;;12.98;44.75;102243.72;5013338;28;20455;-47
2022/11/25 04:36:52;;;;;;;24.88;11.60;;;;;;;12.88;44.91;102249.38;5013291;28;20026;-49
2022/11/25 04:39:18;;;;;;;20.83;10.65;;;;;;;12.65;45.94;102260.25;5013673;28;20188;-49
2022/11/25 04:41:44;;;;;;;21.77;11.68;;;;;;;12.37;46.36;102260.03;5012994;28;20056;-48
2022/11/25 04:44:10;;;;;;;19.67;10.98;;;;;;;12.61;46.20;102256.28;5013297;28;20025;-49
2022/11/25 04:46:40;;;;;;;18.88;11.70;;;;;;;12.35;46.60;102254.84;5012127;28;20064;-50
2022/11/25 04:49:06;;;;;;;22.92;10.90;;;;;;;12.33;46.44;102262.28;5012065;28;20479;-47
2022/11/25 04:51:32;;;;;;;19.67;10.60;;;;;;;12.34;46.65;102250.50;5013378;28;20064;-51
2022/11/25 04:53:58;;;;;;;16.02;10.43;;;;;;;12.55;46.07;102262.38;5012458;28;20474;-51
2022/11/25 04:56:25;;;;;;;21.77;13.00;;;;;;;12.38;46.57;102273.31;5012991;28;20079;-48
2022/11/25 05:01:35;;;;;;;23.00;12.40;;;;;;;12.48;46.83;102266.81;5013425;28;20087;-51
2022/11/25 05:04:02;;;;;;;17.52;11.50;;;;;;;12.27;46.94;102263.00;5012570;28;20022;-51
2022/11/25 05:06:28;;;;;;;16.17;10.30;;;;;;;12.17;47.36;102262.41;5012871;28;20096;-49
2022/11/25 05:08:54;;;;;;;19.00;11.45;;;;;;;12.12;47.54;102262.13;5012757;28;20022;-51
2022/11/25 05:11:20;;;;;;;18.45;10.88;;;;;;;12.01;47.68;102263.41;5012604;28;20550;-48
2022/11/25 05:13:46;;;;;;;18.58;11.20;;;;;;;11.99;47.76;102273.44;5012500;28;20029;-51
2022/11/25 05:16:13;;;;;;;18.48;12.40;;;;;;;11.93;47.58;102281.41;5012782;28;20025;-51
2022/11/25 05:18:39;;;;;;;17.48;11.43;;;;;;;11.94;48.04;102278.56;5012790;28;20036;-48
2022/11/25 05:21:06;;;;;;;19.42;12.00;;;;;;;11.92;47.89;102282.41;5012928;28;20030;-47
2022/11/25 05:23:32;;;;;;;17.63;11.18;;;;;;;11.69;48.47;102282.38;5012391;28;20022;-48
2022/11/25 05:26:00;;;;;;;21.13;11.57;;;;;;;11.46;49.09;102275.16;5012581;28;20024;-48
2022/11/25 05:28:27;;;;;;;19.15;10.85;;;;;;;11.64;49.01;102281.06;5012209;28;20014;-48
2022/11/25 05:30:53;;;;;;;19.00;11.07;;;;;;;11.61;48.92;102284.13;5012346;28;20034;-51
2022/11/25 05:33:19;;;;;;;18.63;11.60;;;;;;;11.48;48.90;102283.00;5012018;28;20101;-52
2022/11/25 05:35:57;;;;;;;19.10;11.57;;;;;;;11.52;49.16;102287.03;5012598;28;20026;-48
2022/11/25 05:38:23;;;;;;;21.35;12.30;;;;;;;11.57;49.32;102284.66;5012081;28;20025;-49
2022/11/25 05:40:49;;;;;;;20.40;13.02;;;;;;;11.37;49.74;102276.19;5012275;28;20025;-51
2022/11/25 05:43:16;;;;;;;18.15;10.98;;;;;;;11.25;49.51;102280.28;5011813;28;20542;-51
2022/11/25 05:45:42;;;;;;;18.50;11.80;;;;;;;11.07;50.72;102283.22;5012102;28;20046;-52
2022/11/25 05:48:08;;;;;;;18.35;12.18;;;;;;;11.33;50.43;102286.47;5012805;28;20044;-51
2022/11/25 05:50:35;;;;;;;20.88;11.00;;;;;;;11.32;49.90;102283.94;5012290;28;20465;-48
2022/11/25 05:53:01;;;;;;;17.70;10.63;;;;;;;11.12;50.37;102275.50;5011672;28;20049;-50
2022/11/25 05:55:28;;;;;;;17.58;10.75;;;;;;;10.98;50.77;102285.09;5011918;28;20084;-49
2022/11/25 05:57:54;;;;;;;14.98;10.18;;;;;;;11.02;50.78;102282.91;5012053;28;20114;-50
2022/11/25 06:00:20;;;;;;;18.73;11.02;;;;;;;11.14;50.32;102284.19;5011807;28;20034;-50
2022/11/25 06:02:50;;;;;;;19.00;11.40;;;;;;;10.97;50.78;102290.63;5011454;28;20045;-51
2022/11/25 06:05:16;;;;;;;17.38;10.55;;;;;;;10.83;51.44;102289.53;5011912;28;20065;-51
2022/11/25 06:07:42;;;;;;;19.35;11.43;;;;;;;10.81;51.26;102286.16;5011841;28;20053;-50
2022/11/25 06:10:09;;;;;;;19.80;11.65;;;;;;;10.59;52.55;102285.03;5012070;28;20022;-49
2022/11/25 06:12:35;;;;;;;17.00;11.30;;;;;;;10.80;51.88;102285.31;5011446;28;20034;-52
2022/11/25 06:15:01;;;;;;;19.55;11.18;;;;;;;10.73;51.91;102287.03;5011825;28;20438;-51
2022/11/25 06:17:27;;;;;;;18.67;10.98;;;;;;;10.70;51.83;102287.34;5010561;28;20029;-51
2022/11/25 06:19:53;;;;;;;18.45;11.75;;;;;;;10.93;51.74;102286.63;5011699;28;20025;-51
2022/11/25 06:22:20;;;;;;;21.90;12.00;;;;;;;10.63;52.29;102285.53;5011512;28;20057;-52
2022/11/25 06:24:46;;;;;;;19.70;11.40;;;;;;;10.54;52.42;102284.72;5011836;28;20042;-51
2022/11/25 06:27:12;;;;;;;18.30;10.95;;;;;;;10.52;52.44;102276.88;5011608;28;20033;-50
2022/11/25 06:29:38;;;;;;;17.55;11.63;;;;;;;10.74;52.44;102267.28;5011388;28;20080;-51
2022/11/25 06:32:04;;;;;;;17.23;11.48;;;;;;;10.62;52.44;102259.78;5011526;28;20026;-52
2022/11/25 06:34:31;;;;;;;18.48;12.40;;;;;;;10.50;52.32;102262.81;5011711;28;20050;-52
2022/11/25 06:36:57;;;;;;;20.23;12.70;;;;;;;10.48;52.44;102261.31;5011566;28;20033;-52
2022/11/25 06:39:23;;;;;;;25.50;13.70;;;;;;;10.45;52.36;102248.28;5011652;28;20040;-50
2022/11/25 06:41:49;;;;;;;30.52;14.93;;;;;;;10.54;52.44;102247.22;5011222;28;20033;-52
2022/11/25 06:44:15;;;;;;;22.35;13.52;;;;;;;10.42;52.81;102241.41;5011387;28;20037;-51
2022/11/25 06:46:42;;;;;;;19.38;13.07;;;;;;;10.46;52.28;102232.03;5011503;28;20524;-51
2022/11/25 06:49:08;;;;;;;19.80;12.48;;;;;;;10.27;52.75;102229.72;5037739;23;20107;-52
2022/11/25 06:51:34;;;;;;;21.10;12.60;;;;;;;10.25;53.57;102231.75;5031424;28;20034;-51
2022/11/25 06:54:00;;;;;;;20.98;12.43;;;;;;;10.23;53.70;102244.44;5031198;28;20025;-48
2022/11/25 06:56:27;;;;;;;18.80;12.40;;;;;;;10.12;53.70;102250.13;5031047;28;20021;-52
2022/11/25 06:58:54;;;;;;;19.02;13.48;;;;;;;10.25;53.89;102253.16;5033807;28;20033;-52
2022/11/25 07:01:22;;;;;;;25.85;15.48;;;;;;;9.91;55.08;102269.34;5031376;28;20030;-53
2022/11/25 07:03:52;;;;;;;22.98;14.80;;;;;;;9.99;55.15;102272.03;5013601;28;20022;-54
2022/11/25 07:06:19;;;;;;;19.27;13.23;;;;;;;9.89;55.11;102287.41;5023581;28;20327;-48
2022/11/25 07:08:46;;;;;;;25.95;14.65;;;;;;;10.15;54.84;102292.59;5019566;28;20018;-48
2022/11/25 07:11:21;;;;;;;24.00;14.93;;;;;;;9.94;55.37;102293.13;4999447;28;20163;-51
2022/11/25 07:13:51;;;;;;;30.25;16.45;;;;;;;9.28;57.59;102294.81;5034519;28;20053;-50
2022/11/25 07:16:17;;;;;;;25.08;13.75;;;;;;;9.47;57.00;102294.53;5017801;28;20029;-50
2022/11/25 07:18:43;;;;;;;23.25;13.95;;;;;;;9.66;56.26;102308.59;5030160;28;20034;-48
2022/11/25 07:21:14;;;;;;;20.60;13.57;;;;;;;9.75;55.94;102310.28;5033580;28;20505;-48
2022/11/25 07:23:41;;;;;;;21.95;14.23;;;;;;;9.70;55.73;102332.16;5034058;28;20045;-47
2022/11/25 07:26:13;;;;;;;24.42;14.27;;;;;;;9.86;55.82;102341.22;5033987;28;20121;-47
2022/11/25 07:28:39;;;;;;;22.77;13.38;;;;;;;9.79;55.57;102333.88;4999159;28;20025;-46
2022/11/25 07:31:12;;;;;;;22.23;14.23;;;;;;;9.46;57.08;102353.50;5031504;28;20547;-47
2022/11/25 07:33:38;;;;;;;22.63;14.23;;;;;;;9.53;56.52;102352.66;5033885;28;20025;-47
2022/11/25 07:36:06;;;;;;;21.35;14.57;;;;;;;9.58;56.43;102352.19;5034301;28;20027;-48
2022/11/25 07:38:33;;;;;;;21.52;14.02;;;;;;;9.70;56.33;102358.91;5033691;28;20022;-47
2022/11/25 07:41:21;;;;;;;25.75;15.05;;;;;;;9.60;56.33;102355.53;5033587;28;20037;-52
2022/11/25 07:43:49;;;;;;;24.98;15.32;;;;;;;9.64;56.55;102364.91;5033777;28;20378;-48
2022/11/25 07:46:23;;;;;;;22.25;15.00;;;;;;;9.65;56.49;102355.88;5033858;28;20033;-48
2022/11/25 07:48:50;;;;;;;24.00;14.75;;;;;;;9.56;56.45;102358.72;5033803;28;20046;-50
2022/11/25 07:51:30;;;;;;;24.73;15.85;;;;;;;9.50;56.50;102358.34;5033906;28;20032;-46
2022/11/25 07:53:58;;;;;;;25.67;16.08;;;;;;;9.53;56.49;102359.84;5033952;28;20033;-47
2022/11/25 07:56:24;;;;;;;27.48;15.68;;;;;;;9.48;56.69;102360.34;5033587;28;20037;-48
2022/11/25 07:58:50;;;;;;;24.58;14.90;;;;;;;9.47;56.57;102364.00;5033422;28;20036;-48
2022/11/25 08:01:18;;;;;;;25.92;15.93;;;;;;;9.61;56.06;102362.56;5033556;28;20029;-51
2022/11/25 08:03:46;;;;;;;24.25;14.55;;;;;;;9.59;55.95;102367.22;5033514;28;20056;-47
2022/11/25 08:06:16;;;;;;;23.55;14.00;;;;;;;9.60;55.78;102370.72;5033368;28;20021;-50
2022/11/25 08:08:43;;;;;;;20.75;13.90;;;;;;;9.51;56.14;102356.50;5033450;28;20112;-49
2022/11/25 08:11:12;;;;;;;26.33;15.82;;;;;;;9.29;56.84;102343.75;5033756;28;20081;-51
2022/11/25 08:13:38;;;;;;;24.52;14.32;;;;;;;9.29;56.82;102349.09;5033176;28;20026;-47
2022/11/25 08:16:06;;;;;;;23.40;13.93;;;;;;;9.39;56.39;102349.81;5033352;28;20025;-47
2022/11/25 08:18:32;;;;;;;22.23;13.32;;;;;;;9.40;56.23;102356.81;5033327;28;20386;-48
2022/11/25 08:21:04;;;;;;;21.38;12.85;;;;;;;9.40;55.85;102346.13;5033299;28;20029;-50
2022/11/25 08:23:31;;;;;;;20.95;11.85;;;;;;;9.14;56.69;102338.16;5032105;28;20024;-50
2022/11/25 08:25:57;;;;;;;19.10;11.98;;;;;;;9.23;56.28;102330.03;5032508;28;20030;-50
2022/11/25 08:28:23;;;;;;;22.85;12.15;;;;;;;9.24;56.22;102329.03;5032942;28;20226;-51
2022/11/25 08:30:50;;;;;;;16.85;10.88;;;;;;;9.22;56.12;102322.19;5010634;28;20041;-49
2022/11/25 08:33:16;;;;;;;20.45;12.43;;;;;;;9.28;56.16;102315.34;5012567;28;20049;-48
2022/11/25 08:35:42;;;;;;;19.45;12.55;;;;;;;9.33;55.70;102305.00;5018424;28;20041;-48
2022/11/25 08:38:10;;;;;;;20.25;12.05;;;;;;;9.21;56.02;102309.78;5018025;28;20061;-47
2022/11/25 08:40:37;;;;;;;22.73;12.73;;;;;;;9.11;56.07;102312.63;5016827;28;20037;-50
2022/11/25 08:43:04;;;;;;;23.60;12.50;;;;;;;9.05;56.29;102323.94;5033194;28;20421;-48
2022/11/25 08:45:30;;;;;;;26.20;14.00;;;;;;;9.03;56.45;102322.41;5033435;28;20029;-47
2022/11/25 08:47:57;;;;;;;27.45;15.35;;;;;;;9.02;56.76;102318.91;5035320;23;20064;-46
2022/11/25 08:50:24;;;;;;;23.73;14.65;;;;;;;8.94;57.23;102316.22;4997834;28;20494;-47
2022/11/25 08:52:50;;;;;;;24.23;14.63;;;;;;;8.97;57.13;102318.53;5012423;28;20113;-48
2022/11/25 08:55:16;;;;;;;26.80;16.20;;;;;;;8.79;58.63;102320.44;5013026;28;20495;-51
2022/11/25 08:57:42;;;;;;;23.48;14.05;;;;;;;8.86;57.87;102297.47;5011610;28;20095;-48
2022/11/25 09:00:10;;;;;;;24.38;14.50;;;;;;;8.87;58.15;102291.13;5013115;28;20455;-48
2022/11/25 09:02:36;;;;;;;22.30;14.25;;;;;;;8.85;58.18;102298.47;4999194;28;20030;-49
2022/11/25 09:05:02;;;;;;;26.88;15.07;;;;;;;8.86;58.25;102300.13;5012806;28;20102;-49
2022/11/25 09:07:28;;;;;;;24.63;14.65;;;;;;;8.82;58.23;102296.09;5011714;28;20022;-50
2022/11/25 09:09:55;;;;;;;27.25;14.48;;;;;;;8.73;58.38;102309.41;5012950;28;20038;-49
2022/11/25 09:12:21;;;;;;;21.42;13.77;;;;;;;8.71;58.27;102316.72;5010367;28;20037;-51
2022/11/25 09:14:48;;;;;;;22.58;14.45;;;;;;;8.70;58.65;102311.53;5012490;28;20478;-49
2022/11/25 09:17:15;;;;;;;25.83;14.60;;;;;;;8.66;58.71;102318.19;5003061;28;20045;-49
2022/11/25 09:19:41;;;;;;;25.60;15.75;;;;;;;8.64;58.95;102323.69;4993214;28;20038;-45
2022/11/25 09:22:07;;;;;;;28.35;16.00;;;;;;;8.62;59.27;102325.69;5006100;28;20030;-50
2022/11/25 09:24:35;;;;;;;28.95;16.13;;;;;;;8.68;59.27;102322.38;5010716;28;20186;-48
2022/11/25 09:27:01;;;;;;;26.05;15.30;;;;;;;8.63;59.68;102331.84;4995847;28;20141;-51
2022/11/25 09:29:29;;;;;;;29.42;17.40;;;;;;;8.74;60.20;102334.28;4996368;28;20025;-51
2022/11/25 09:31:56;;;;;;;27.13;15.88;;;;;;;8.59;60.39;102342.00;5012137;28;20053;-45
2022/11/25 09:34:23;;;;;;;30.48;17.38;;;;;;;8.70;60.04;102344.41;5010456;28;20030;-49
2022/11/25 09:36:50;;;;;;;28.70;16.75;;;;;;;8.97;59.95;102351.41;5012201;28;20463;-46
2022/11/25 09:39:16;;;;;;;29.48;16.92;;;;;;;8.81;60.44;102362.00;5009700;28;20026;-50
2022/11/25 09:47:46;;;;;;;29.05;18.10;;;;;;;8.48;62.90;102405.47;4973011;28;20038;-47
2022/11/25 09:50:47;;;;;;;24.73;15.85;;;;;;;8.26;62.82;102420.06;4989237;28;20391;-48
2022/11/25 09:53:23;;;;;;;33.55;17.77;;;;;;;8.07;64.24;102410.41;4991605;28;20037;-46
2022/11/25 09:55:50;;;;;;;;;;;;;;;7.87;65.40;102407.84;5012686;28;20033;-50
2022/11/25 09:58:22;;;;;;;30.23;16.42;;;;;;;7.91;64.97;102409.22;5008341;28;19913;-50
2022/11/25 10:00:50;;;;;;;25.73;16.27;;;;;;;8.05;65.03;102423.03;5006981;28;20037;-50
2022/11/25 10:03:46;;;;;;;27.17;16.05;;;;;;;8.10;64.88;102418.91;4972497;28;20031;-50
2022/11/25 10:06:27;;;;;;;35.42;17.35;;;;;;;8.19;65.33;102426.00;5009386;28;20073;-50
2022/11/25 10:09:15;;;;;;;31.85;17.10;;;;;;;8.28;65.00;102426.94;5009009;28;20062;-47
2022/11/25 10:11:50;;;;;;;32.67;19.05;;;;;;;8.30;65.60;102421.44;5011617;28;20105;-51
2022/11/25 10:14:25;;;;;;;34.17;19.25;;;;;;;8.28;66.39;102421.63;4994630;28;20042;-50
2022/11/25 10:16:57;;;;;;;45.67;22.10;;;;;;;8.15;70.76;102408.63;4992084;28;20030;-50
2022/11/25 10:19:31;;;;;;;43.20;20.95;;;;;;;7.92;71.62;102407.41;4997769;28;20128;-50
2022/11/25 10:21:57;;;;;;;35.20;20.00;;;;;;;8.11;70.42;102415.28;5011437;28;20505;-48
2022/11/25 10:24:24;;;;;;;31.25;19.50;;;;;;;8.28;69.48;102408.28;5008047;28;20036;-50
2022/11/25 10:27:00;;;;;;;33.33;17.35;;;;;;;8.30;68.79;102384.09;5008788;28;20079;-50
2022/11/25 10:29:28;;;;;;;27.50;17.58;;;;;;;8.41;67.81;102375.91;4998932;28;20393;-50
2022/11/25 10:32:02;;;;;;;27.48;16.27;;;;;;;8.52;67.32;102370.31;5011341;28;20025;-46
2022/11/25 10:34:41;;;;;;;31.48;16.52;;;;;;;8.51;66.65;102352.63;5003441;28;20164;-47
2022/11/25 10:37:25;;;;;;;30.50;16.67;;;;;;;8.72;65.40;102352.28;5010213;28;20033;-49
2022/11/25 10:39:52;;;;;;;22.05;14.75;;;;;;;8.58;65.32;102344.84;5008338;28;20156;-50
2022/11/25 10:42:21;;;;;;;27.02;14.00;;;;;;;8.58;65.08;102335.00;5008289;28;20029;-46
2022/11/25 10:44:48;;;;;;;21.83;13.68;;;;;;;8.52;64.72;102324.94;5011425;28;20022;-50
2022/11/25 10:47:34;;;;;;;23.17;14.05;;;;;;;8.48;64.50;102306.72;4998325;28;20034;-49
2022/11/25 10:50:19;;;;;;;27.35;14.93;;;;;;;8.58;63.75;102300.28;4995783;28;20193;-50
2022/11/25 10:53:03;;;;;;;23.60;13.80;;;;;;;8.44;63.49;102304.38;4993249;28;20031;-48
2022/11/25 10:55:32;;;;;;;26.42;15.60;;;;;;;8.39;64.18;102298.69;4995730;28;20491;-49
2022/11/25 10:58:18;;;;;;;28.17;15.43;;;;;;;8.40;63.78;102295.00;5010742;28;20033;-50
2022/11/25 11:00:44;;;;;;;28.20;16.05;;;;;;;8.56;63.78;102290.78;5015146;28;20026;-49
2022/11/25 11:03:20;;;;;;;25.63;14.32;;;;;;;8.46;63.70;102301.56;5011300;28;20022;-48
2022/11/25 11:05:49;;;;;;;26.25;15.30;;;;;;;8.45;63.84;102313.22;5014949;28;20030;-50
2022/11/25 11:08:20;;;;;;;32.53;16.73;;;;;;;8.76;63.43;102307.41;4992738;28;20061;-50
2022/11/25 11:11:06;;;;;;;28.48;17.05;;;;;;;8.53;64.03;102310.59;4995658;28;20042;-50
2022/11/25 11:13:33;;;;;;;30.73;16.67;;;;;;;8.41;64.06;102326.03;5014714;28;20076;-47
2022/11/25 11:15:59;;;;;;;28.90;16.23;;;;;;;8.62;63.63;102319.50;5014936;28;20057;-48
2022/11/25 11:18:43;;;;;;;27.50;15.30;;;;;;;8.44;63.80;102325.75;5010933;28;20061;-49
2022/11/25 11:21:29;;;;;;;30.70;17.20;;;;;;;8.61;63.97;102324.03;5014409;28;20030;-46
2022/11/25 11:23:56;;;;;;;25.45;14.35;;;;;;;8.34;64.26;102326.78;5011312;28;20033;-50
2022/11/25 11:26:27;;;;;;;28.13;15.65;;;;;;;8.58;63.64;102316.31;5012694;28;20030;-50
2022/11/25 11:29:04;;;;;;;28.20;15.15;;;;;;;8.52;63.95;102322.28;4998571;28;20557;-49
2022/11/25 11:31:39;;;;;;;29.27;15.73;;;;;;;8.25;64.67;102311.69;5011706;28;20060;-51
2022/11/25 11:35:02;;;;;;;30.02;16.25;;;;;;;8.08;65.18;102306.22;5014765;28;20064;-50
2022/11/25 11:37:38;;;;;;;25.85;14.77;;;;;;;8.23;64.81;102306.53;4934868;29;20036;-50
2022/11/25 11:40:18;;;;;;;28.08;14.07;;;;;;;8.24;64.18;102310.03;4934480;29;20044;-50